sensor_id;sensor_type;location;lat;lon;timestamp;pressure;altitude;pressure_sealevel;temperature;humidity
57056;BME280;42945;51.718;5.324;2023-05-19T00:02:14;102465.06;;;7.39;100.00
57056;BME280;42945;51.718;5.324;2023-05-19T00:08:03;102467.91;;;7.26;100.00
57056;BME280;42945;51.718;5.324;2023-05-19T00:13:52;102501.19;;;7.35;100.00
57056;BME280;42945;51.718;5.324;2023-05-19T00:19:40;102472.50;;;7.15;100.00
57056;BME280;42945;51.718;5.324;2023-05-19T00:25:29;102334.81;;;6.43;100.00
57056;BME280;42945;51.718;5.324;2023-05-19T00:31:17;102343.63;;;6.42;100.00
57056;BME280;42945;51.718;5.324;2023-05-19T00:37:04;102404.28;;;6.94;100.00
57056;BME280;42945;51.718;5.324;2023-05-19T00:42:52;102351.84;;;6.22;100.00
57056;BME280;42945;51.718;5.324;2023-05-19T00:48:39;102445.78;;;6.82;100.00
57056;BME280;42945;51.718;5.324;2023-05-19T00:58:25;102468.97;;;6.62;100.00
57056;BME280;42945;51.718;5.324;2023-05-19T01:04:20;102443.66;;;6.52;100.00
57056;BME280;42945;51.718;5.324;2023-05-19T01:10:12;102453.25;;;6.56;100.00
57056;BME280;42945;51.718;5.324;2023-05-19T01:16:11;102432.31;;;6.45;100.00
57056;BME280;42945;51.718;5.324;2023-05-19T01:28:23;102333.34;;;5.60;100.00
57056;BME280;42945;51.718;5.324;2023-05-19T01:34:15;102442.41;;;6.14;100.00
57056;BME280;42945;51.718;5.324;2023-05-19T01:40:06;102430.09;;;6.16;100.00
57056;BME280;42945;51.718;5.324;2023-05-19T01:45:55;102426.78;;;6.01;100.00
57056;BME280;42945;51.718;5.324;2023-05-19T01:51:44;102426.81;;;5.97;100.00
57056;BME280;42945;51.718;5.324;2023-05-19T02:08:06;102470.78;;;5.90;100.00
57056;BME280;42945;51.718;5.324;2023-05-19T02:14:01;102409.38;;;5.85;100.00
57056;BME280;42945;51.718;5.324;2023-05-19T02:19:49;102445.38;;;5.86;100.00
57056;BME280;42945;51.718;5.324;2023-05-19T02:25:38;102455.00;;;5.87;100.00
57056;BME280;42945;51.718;5.324;2023-05-19T02:31:25;102318.22;;;5.08;100.00
57056;BME280;42945;51.718;5.324;2023-05-19T02:37:14;102464.84;;;5.71;100.00
57056;BME280;42945;51.718;5.324;2023-05-19T02:43:03;102408.69;;;5.72;100.00
57056;BME280;42945;51.718;5.324;2023-05-19T02:48:52;102520.38;;;6.28;100.00
57056;BME280;42945;51.718;5.324;2023-05-19T02:54:40;102283.44;;;4.83;100.00
57056;BME280;42945;51.718;5.324;2023-05-19T03:04:29;102634.88;;;6.76;100.00
57056;BME280;42945;51.718;5.324;2023-05-19T03:10:17;102231.53;;;4.15;100.00
57056;BME280;42945;51.718;5.324;2023-05-19T03:16:05;102251.31;;;4.54;100.00
57056;BME280;42945;51.718;5.324;2023-05-19T03:21:54;102441.63;;;5.26;100.00
57056;BME280;42945;51.718;5.324;2023-05-19T03:27:42;102477.59;;;5.23;100.00
57056;BME280;42945;51.718;5.324;2023-05-19T03:33:30;102421.59;;;5.13;100.00
57056;BME280;42945;51.718;5.324;2023-05-19T03:39:18;102453.94;;;5.21;100.00
57056;BME280;42945;51.718;5.324;2023-05-19T03:45:07;102411.97;;;5.12;100.00
57056;BME280;42945;51.718;5.324;2023-05-19T03:50:56;102426.03;;;5.08;100.00
57056;BME280;42945;51.718;5.324;2023-05-19T03:56:44;102486.41;;;5.19;100.00
57056;BME280;42945;51.718;5.324;2023-05-19T04:06:27;102504.75;;;5.26;100.00
57056;BME280;42945;51.718;5.324;2023-05-19T04:12:15;102412.69;;;5.28;100.00
57056;BME280;42945;51.718;5.324;2023-05-19T04:18:03;102455.63;;;5.31;100.00
57056;BME280;42945;51.718;5.324;2023-05-19T04:23:51;102432.81;;;5.33;100.00
57056;BME280;42945;51.718;5.324;2023-05-19T04:29:38;102460.16;;;5.14;100.00
57056;BME280;42945;51.718;5.324;2023-05-19T04:35:26;102498.38;;;5.53;100.00
57056;BME280;42945;51.718;5.324;2023-05-19T04:41:13;102335.88;;;4.93;100.00
57056;BME280;42945;51.718;5.324;2023-05-19T04:47:09;102550.22;;;6.30;100.00
57056;BME280;42945;51.718;5.324;2023-05-19T04:52:58;102452.38;;;5.87;100.00
57056;BME280;42945;51.718;5.324;2023-05-19T04:58:46;102434.59;;;6.07;100.00
57056;BME280;42945;51.718;5.324;2023-05-19T05:08:27;102468.44;;;6.38;100.00
57056;BME280;42945;51.718;5.324;2023-05-19T05:14:17;102469.84;;;6.62;100.00
57056;BME280;42945;51.718;5.324;2023-05-19T05:20:06;102539.84;;;6.83;100.00
57056;BME280;42945;51.718;5.324;2023-05-19T05:25:55;102386.00;;;6.28;100.00
57056;BME280;42945;51.718;5.324;2023-05-19T05:31:44;102465.38;;;7.20;100.00
57056;BME280;42945;51.718;5.324;2023-05-19T05:37:32;102441.03;;;7.06;100.00
57056;BME280;42945;51.718;5.324;2023-05-19T05:43:19;102463.59;;;7.22;100.00
57056;BME280;42945;51.718;5.324;2023-05-19T05:49:07;102446.34;;;7.53;100.00
57056;BME280;42945;51.718;5.324;2023-05-19T05:54:56;102456.81;;;7.56;100.00
57056;BME280;42945;51.718;5.324;2023-05-19T06:00:45;102459.63;;;7.92;100.00
57056;BME280;42945;51.718;5.324;2023-05-19T06:10:28;102425.88;;;8.46;100.00
57056;BME280;42945;51.718;5.324;2023-05-19T06:16:16;102437.22;;;8.87;100.00
57056;BME280;42945;51.718;5.324;2023-05-19T06:22:04;102313.72;;;8.18;100.00
57056;BME280;42945;51.718;5.324;2023-05-19T06:27:52;102310.56;;;8.39;100.00
57056;BME280;42945;51.718;5.324;2023-05-19T06:33:41;102430.34;;;9.15;100.00
57056;BME280;42945;51.718;5.324;2023-05-19T06:39:29;102410.38;;;9.67;100.00
57056;BME280;42945;51.718;5.324;2023-05-19T06:45:17;102288.34;;;8.82;100.00
57056;BME280;42945;51.718;5.324;2023-05-19T06:51:08;102311.13;;;9.19;100.00
57056;BME280;42945;51.718;5.324;2023-05-19T06:56:56;102446.47;;;10.02;100.00
57056;BME280;42945;51.718;5.324;2023-05-19T07:02:44;102363.19;;;10.10;100.00
57056;BME280;42945;51.718;5.324;2023-05-19T07:12:26;102398.69;;;10.62;100.00
57056;BME280;42945;51.718;5.324;2023-05-19T07:18:14;102378.13;;;10.95;100.00
57056;BME280;42945;51.718;5.324;2023-05-19T07:24:02;102402.56;;;11.30;100.00
57056;BME280;42945;51.718;5.324;2023-05-19T07:29:49;102252.59;;;10.92;100.00
57056;BME280;42945;51.718;5.324;2023-05-19T07:35:37;102394.53;;;12.04;100.00
57056;BME280;42945;51.718;5.324;2023-05-19T07:41:24;102330.59;;;11.83;100.00
57056;BME280;42945;51.718;5.324;2023-05-19T07:47:12;102272.91;;;11.63;100.00
57056;BME280;42945;51.718;5.324;2023-05-19T07:53:00;102369.66;;;12.05;100.00
57056;BME280;42945;51.718;5.324;2023-05-19T07:58:48;102372.38;;;12.48;100.00
57056;BME280;42945;51.718;5.324;2023-05-19T08:04:36;102323.56;;;11.82;100.00
57056;BME280;42945;51.718;5.324;2023-05-19T08:10:24;102346.78;;;12.23;100.00
57056;BME280;42945;51.718;5.324;2023-05-19T08:16:13;102363.44;;;12.71;100.00
57056;BME280;42945;51.718;5.324;2023-05-19T08:22:02;102250.63;;;12.32;100.00
57056;BME280;42945;51.718;5.324;2023-05-19T08:27:53;102334.88;;;13.36;100.00
57056;BME280;42945;51.718;5.324;2023-05-19T08:33:40;102338.78;;;13.48;100.00
57056;BME280;42945;51.718;5.324;2023-05-19T08:39:28;102337.06;;;13.66;100.00
57056;BME280;42945;51.718;5.324;2023-05-19T08:45:15;102342.84;;;13.75;100.00
57056;BME280;42945;51.718;5.324;2023-05-19T08:51:26;102316.81;;;14.17;100.00
57056;BME280;42945;51.718;5.324;2023-05-19T08:57:22;102209.88;;;14.04;100.00
57056;BME280;42945;51.718;5.324;2023-05-19T09:03:13;102280.94;;;15.10;100.00
57056;BME280;42945;51.718;5.324;2023-05-19T09:09:02;102316.41;;;14.96;100.00
57056;BME280;42945;51.718;5.324;2023-05-19T09:14:51;102314.69;;;14.95;100.00
57056;BME280;42945;51.718;5.324;2023-05-19T09:20:42;102314.69;;;15.78;100.00
57056;BME280;42945;51.718;5.324;2023-05-19T09:26:38;102275.38;;;15.30;100.00
57056;BME280;42945;51.718;5.324;2023-05-19T09:32:26;102177.50;;;15.12;100.00
57056;BME280;42945;51.718;5.324;2023-05-19T09:38:17;102303.97;;;15.62;100.00
57056;BME280;42945;51.718;5.324;2023-05-19T09:44:06;102256.19;;;15.87;92.25
57056;BME280;42945;51.718;5.324;2023-05-19T09:49:54;102263.06;;;16.07;91.83
57056;BME280;42945;51.718;5.324;2023-05-19T09:55:42;102378.28;;;16.52;80.76
57056;BME280;42945;51.718;5.324;2023-05-19T10:01:31;102299.09;;;15.86;76.90
57056;BME280;42945;51.718;5.324;2023-05-19T10:07:22;102409.00;;;17.07;75.48
57056;BME280;42945;51.718;5.324;2023-05-19T10:16:58;102633.13;;;18.02;78.19
57056;BME280;42945;51.718;5.324;2023-05-19T10:22:47;102247.88;;;16.08;83.39
57056;BME280;42945;51.718;5.324;2023-05-19T10:28:41;102258.34;;;17.16;75.66
57056;BME280;42945;51.718;5.324;2023-05-19T10:34:47;102313.88;;;16.53;71.79
57056;BME280;42945;51.718;5.324;2023-05-19T10:40:52;102242.19;;;16.59;71.17
57056;BME280;42945;51.718;5.324;2023-05-19T10:46:43;102248.34;;;16.30;67.11
57056;BME280;42945;51.718;5.324;2023-05-19T10:52:36;102113.09;;;15.94;67.62
57056;BME280;42945;51.718;5.324;2023-05-19T11:04:46;102249.91;;;17.08;67.75
57056;BME280;42945;51.718;5.324;2023-05-19T11:10:16;102012.47;;;15.62;62.22
57056;BME280;42945;51.718;5.324;2023-05-19T11:20:26;101865.66;;;17.47;58.24
57056;BME280;42945;51.718;5.324;2023-05-19T11:26:38;102138.84;;;15.81;56.91
57056;BME280;42945;51.718;5.324;2023-05-19T11:32:33;102199.16;;;17.46;57.51
57056;BME280;42945;51.718;5.324;2023-05-19T11:38:21;102237.63;;;17.74;55.96
57056;BME280;42945;51.718;5.324;2023-05-19T11:44:10;102253.81;;;18.27;56.68
57056;BME280;42945;51.718;5.324;2023-05-19T11:49:59;102352.72;;;18.20;56.06
57056;BME280;42945;51.718;5.324;2023-05-19T11:55:47;102100.06;;;17.18;57.13
57056;BME280;42945;51.718;5.324;2023-05-19T12:01:35;102167.09;;;17.72;53.01
57056;BME280;42945;51.718;5.324;2023-05-19T12:07:23;102243.91;;;18.15;54.66
57056;BME280;42945;51.718;5.324;2023-05-19T12:13:13;102105.69;;;18.07;52.86
57056;BME280;42945;51.718;5.324;2023-05-19T12:23:01;102195.13;;;17.95;53.96
57056;BME280;42945;51.718;5.324;2023-05-19T12:28:50;102199.59;;;18.35;51.65
57056;BME280;42945;51.718;5.324;2023-05-19T12:34:39;102195.50;;;18.93;52.24
57056;BME280;42945;51.718;5.324;2023-05-19T12:40:28;102160.09;;;19.12;47.36
57056;BME280;42945;51.718;5.324;2023-05-19T12:46:17;102135.75;;;18.51;47.36
57056;BME280;42945;51.718;5.324;2023-05-19T12:52:06;102146.97;;;19.44;45.96
57056;BME280;42945;51.718;5.324;2023-05-19T12:57:54;102287.91;;;19.55;44.66
57056;BME280;42945;51.718;5.324;2023-05-19T13:03:43;102147.34;;;18.77;46.54
57056;BME280;42945;51.718;5.324;2023-05-19T13:09:32;102181.09;;;18.68;48.20
57056;BME280;42945;51.718;5.324;2023-05-19T13:15:22;102055.25;;;18.62;47.58
57056;BME280;42945;51.718;5.324;2023-05-19T13:25:06;102013.22;;;18.12;48.86
57056;BME280;42945;51.718;5.324;2023-05-19T13:30:54;102052.41;;;18.14;49.74
57056;BME280;42945;51.718;5.324;2023-05-19T13:36:42;102180.34;;;18.41;47.02
57056;BME280;42945;51.718;5.324;2023-05-19T13:42:35;101895.19;;;18.10;46.74
57056;BME280;42945;51.718;5.324;2023-05-19T13:48:23;102114.09;;;19.28;46.15
57056;BME280;42945;51.718;5.324;2023-05-19T13:54:10;102144.25;;;19.93;46.33
57056;BME280;42945;51.718;5.324;2023-05-19T13:59:59;102027.56;;;18.86;47.25
57056;BME280;42945;51.718;5.324;2023-05-19T14:05:47;101993.78;;;18.58;47.44
57056;BME280;42945;51.718;5.324;2023-05-19T14:11:35;102108.09;;;19.73;46.80
57056;BME280;42945;51.718;5.324;2023-05-19T14:17:25;102146.72;;;19.96;47.24
57056;BME280;42945;51.718;5.324;2023-05-19T14:27:05;102029.03;;;19.27;45.38
57056;BME280;42945;51.718;5.324;2023-05-19T14:33:20;102071.69;;;19.67;46.73
57056;BME280;42945;51.718;5.324;2023-05-19T14:39:08;102123.97;;;20.11;44.65
57056;BME280;42945;51.718;5.324;2023-05-19T14:44:57;102111.09;;;20.03;44.39
57056;BME280;42945;51.718;5.324;2023-05-19T14:50:48;102026.84;;;19.79;44.43
57056;BME280;42945;51.718;5.324;2023-05-19T14:56:36;102086.44;;;20.66;45.96
57056;BME280;42945;51.718;5.324;2023-05-19T15:02:25;102090.69;;;20.91;43.04
57056;BME280;42945;51.718;5.324;2023-05-19T15:08:14;101947.69;;;20.15;43.75
57056;BME280;42945;51.718;5.324;2023-05-19T15:14:03;102099.31;;;21.29;44.63
57056;BME280;42945;51.718;5.324;2023-05-19T15:19:50;102048.84;;;21.40;42.87
57056;BME280;42945;51.718;5.324;2023-05-19T15:29:39;101974.75;;;19.80;41.31
57056;BME280;42945;51.718;5.324;2023-05-19T15:35:28;102098.16;;;20.99;43.44
57056;BME280;42945;51.718;5.324;2023-05-19T15:41:15;102069.38;;;21.64;43.10
57056;BME280;42945;51.718;5.324;2023-05-19T15:47:04;102078.22;;;20.79;41.17
57056;BME280;42945;51.718;5.324;2023-05-19T15:52:52;101938.88;;;20.13;43.04
57056;BME280;42945;51.718;5.324;2023-05-19T15:58:40;102049.09;;;22.21;43.37
57056;BME280;42945;51.718;5.324;2023-05-19T16:04:30;102329.91;;;24.40;41.76
57056;BME280;42945;51.718;5.324;2023-05-19T16:10:18;102162.56;;;23.64;41.24
57056;BME280;42945;51.718;5.324;2023-05-19T16:16:06;102067.84;;;22.44;40.26
57056;BME280;42945;51.718;5.324;2023-05-19T16:21:54;102039.31;;;22.61;39.52
57056;BME280;42945;51.718;5.324;2023-05-19T16:27:42;101918.06;;;22.06;39.92
57056;BME280;42945;51.718;5.324;2023-05-19T16:33:30;101927.19;;;22.85;38.15
57056;BME280;42945;51.718;5.324;2023-05-19T16:39:17;102029.31;;;23.31;37.79
57056;BME280;42945;51.718;5.324;2023-05-19T16:45:07;102216.19;;;24.09;36.04
57056;BME280;42945;51.718;5.324;2023-05-19T16:50:55;102033.97;;;23.78;37.34
57056;BME280;42945;51.718;5.324;2023-05-19T16:56:43;102033.44;;;24.22;36.96
57056;BME280;42945;51.718;5.324;2023-05-19T17:02:33;101919.59;;;23.47;35.94
57056;BME280;42945;51.718;5.324;2023-05-19T17:08:20;102024.03;;;23.49;36.12
57056;BME280;42945;51.718;5.324;2023-05-19T17:14:09;102059.44;;;24.42;36.44
57056;BME280;42945;51.718;5.324;2023-05-19T17:19:58;102013.16;;;23.69;38.13
57056;BME280;42945;51.718;5.324;2023-05-19T17:25:47;101918.63;;;22.99;37.71
57056;BME280;42945;51.718;5.324;2023-05-19T17:31:38;101916.16;;;23.92;34.63
57056;BME280;42945;51.718;5.324;2023-05-19T17:37:25;102015.75;;;24.55;37.40
57056;BME280;42945;51.718;5.324;2023-05-19T17:43:13;101923.19;;;22.98;36.91
57056;BME280;42945;51.718;5.324;2023-05-19T17:49:02;101905.66;;;22.44;36.27
57056;BME280;42945;51.718;5.324;2023-05-19T17:54:51;101936.16;;;23.14;36.63
57056;BME280;42945;51.718;5.324;2023-05-19T18:00:40;102214.88;;;22.53;40.12
57056;BME280;42945;51.718;5.324;2023-05-19T18:06:28;102087.78;;;20.72;43.34
57056;BME280;42945;51.718;5.324;2023-05-19T18:12:18;102081.34;;;21.07;43.14
57056;BME280;42945;51.718;5.324;2023-05-19T18:18:06;102045.50;;;20.38;47.08
57056;BME280;42945;51.718;5.324;2023-05-19T18:23:57;102039.22;;;18.86;48.27
57056;BME280;42945;51.718;5.324;2023-05-19T18:33:36;102123.75;;;18.44;52.97
57056;BME280;42945;51.718;5.324;2023-05-19T18:39:24;101988.75;;;17.12;56.99
57056;BME280;42945;51.718;5.324;2023-05-19T18:45:12;102006.44;;;16.87;62.33
57056;BME280;42945;51.718;5.324;2023-05-19T18:51:01;102067.16;;;16.60;65.71
57056;BME280;42945;51.718;5.324;2023-05-19T18:56:50;102089.31;;;16.19;70.99
57056;BME280;42945;51.718;5.324;2023-05-19T19:02:39;101952.88;;;15.15;79.72
57056;BME280;42945;51.718;5.324;2023-05-19T19:08:27;102076.53;;;15.79;85.36
57056;BME280;42945;51.718;5.324;2023-05-19T19:14:15;102082.44;;;15.24;89.55
57056;BME280;42945;51.718;5.324;2023-05-19T19:20:06;101957.13;;;14.57;92.72
57056;BME280;42945;51.718;5.324;2023-05-19T19:25:54;101956.47;;;14.20;97.00
57056;BME280;42945;51.718;5.324;2023-05-19T19:35:18;102019.63;;;14.04;100.00
57056;BME280;42945;51.718;5.324;2023-05-19T19:41:06;101997.22;;;13.90;100.00
57056;BME280;42945;51.718;5.324;2023-05-19T19:46:55;102127.34;;;14.34;100.00
57056;BME280;42945;51.718;5.324;2023-05-19T19:52:43;102132.72;;;14.17;100.00
57056;BME280;42945;51.718;5.324;2023-05-19T19:58:32;101994.81;;;13.33;100.00
57056;BME280;42945;51.718;5.324;2023-05-19T20:04:20;102102.16;;;13.89;100.00
57056;BME280;42945;51.718;5.324;2023-05-19T20:10:09;102052.81;;;13.09;100.00
57056;BME280;42945;51.718;5.324;2023-05-19T20:15:56;102145.56;;;13.56;100.00
57056;BME280;42945;51.718;5.324;2023-05-19T20:21:44;102133.06;;;13.39;100.00
57056;BME280;42945;51.718;5.324;2023-05-19T20:27:32;102107.75;;;13.31;100.00
57056;BME280;42945;51.718;5.324;2023-05-19T20:36:49;102045.53;;;12.57;100.00
57056;BME280;42945;51.718;5.324;2023-05-19T20:42:38;102128.06;;;13.14;100.00
57056;BME280;42945;51.718;5.324;2023-05-19T20:48:27;101902.59;;;11.65;100.00
57056;BME280;42945;51.718;5.324;2023-05-19T20:54:15;102126.25;;;12.96;100.00
57056;BME280;42945;51.718;5.324;2023-05-19T21:00:06;102010.50;;;12.10;100.00
57056;BME280;42945;51.718;5.324;2023-05-19T21:05:54;102130.16;;;12.70;100.00
57056;BME280;42945;51.718;5.324;2023-05-19T21:11:42;101998.69;;;11.96;100.00
57056;BME280;42945;51.718;5.324;2023-05-19T21:17:32;102171.34;;;12.61;100.00
57056;BME280;42945;51.718;5.324;2023-05-19T21:23:20;102247.09;;;13.12;100.00
57056;BME280;42945;51.718;5.324;2023-05-19T21:29:10;102097.50;;;12.46;100.00
57056;BME280;42945;51.718;5.324;2023-05-19T21:38:31;102113.31;;;12.30;100.00
57056;BME280;42945;51.718;5.324;2023-05-19T21:44:19;101998.84;;;11.51;100.00
57056;BME280;42945;51.718;5.324;2023-05-19T21:50:08;102131.97;;;12.08;100.00
57056;BME280;42945;51.718;5.324;2023-05-19T21:55:58;102167.75;;;12.00;100.00
57056;BME280;42945;51.718;5.324;2023-05-19T22:01:47;102180.97;;;11.80;100.00
57056;BME280;42945;51.718;5.324;2023-05-19T22:07:36;102024.63;;;11.06;100.00
57056;BME280;42945;51.718;5.324;2023-05-19T22:13:24;102149.34;;;11.74;100.00
57056;BME280;42945;51.718;5.324;2023-05-19T22:19:13;102005.84;;;11.11;100.00
57056;BME280;42945;51.718;5.324;2023-05-19T22:25:02;102212.09;;;11.78;100.00
57056;BME280;42945;51.718;5.324;2023-05-19T22:31:01;102168.84;;;11.52;100.00
57056;BME280;42945;51.718;5.324;2023-05-19T22:40:40;102125.19;;;11.36;100.00
57056;BME280;42945;51.718;5.324;2023-05-19T22:46:28;102159.19;;;11.28;100.00
57056;BME280;42945;51.718;5.324;2023-05-19T22:52:18;102200.72;;;11.30;100.00
57056;BME280;42945;51.718;5.324;2023-05-19T22:58:08;102126.69;;;10.75;100.00
57056;BME280;42945;51.718;5.324;2023-05-19T23:03:56;102060.78;;;10.16;100.00
57056;BME280;42945;51.718;5.324;2023-05-19T23:09:44;102177.09;;;10.75;100.00
57056;BME280;42945;51.718;5.324;2023-05-19T23:15:32;102164.78;;;10.74;100.00
57056;BME280;42945;51.718;5.324;2023-05-19T23:21:21;102395.97;;;11.89;100.00
57056;BME280;42945;51.718;5.324;2023-05-19T23:27:10;102199.88;;;10.57;100.00
57056;BME280;42945;51.718;5.324;2023-05-19T23:32:59;101962.81;;;9.14;100.00
57056;BME280;42945;51.718;5.324;2023-05-19T23:42:43;102190.44;;;10.49;100.00
57056;BME280;42945;51.718;5.324;2023-05-19T23:48:31;102173.88;;;10.42;100.00
57056;BME280;42945;51.718;5.324;2023-05-19T23:54:20;102214.25;;;10.23;100.00
